sensor_id;sensor_type;location;lat;lon;timestamp;P1;durP1;ratioP1;P2;durP2;ratioP2
35578;SDS011;21687;48.900;9.188;2022-11-15T00:00:51;6.63;;;4.27;;
35578;SDS011;21687;48.900;9.188;2022-11-15T00:03:18;7.23;;;4.07;;
35578;SDS011;21687;48.900;9.188;2022-11-15T00:05:46;4.13;;;3.73;;
35578;SDS011;21687;48.900;9.188;2022-11-15T00:08:13;7.07;;;4.17;;
35578;SDS011;21687;48.900;9.188;2022-11-15T00:10:39;6.53;;;4.20;;
35578;SDS011;21687;48.900;9.188;2022-11-15T00:13:06;6.03;;;3.60;;
35578;SDS011;21687;48.900;9.188;2022-11-15T00:15:34;5.13;;;3.30;;
35578;SDS011;21687;48.900;9.188;2022-11-15T00:18:02;6.77;;;3.90;;
35578;SDS011;21687;48.900;9.188;2022-11-15T00:20:29;5.07;;;3.97;;
35578;SDS011;21687;48.900;9.188;2022-11-15T00:22:55;4.80;;;3.80;;
35578;SDS011;21687;48.900;9.188;2022-11-15T00:25:21;5.93;;;3.77;;
35578;SDS011;21687;48.900;9.188;2022-11-15T00:27:47;6.60;;;3.70;;
35578;SDS011;21687;48.900;9.188;2022-11-15T00:30:14;5.70;;;3.87;;
35578;SDS011;21687;48.900;9.188;2022-11-15T00:32:40;6.03;;;3.77;;
35578;SDS011;21687;48.900;9.188;2022-11-15T00:35:06;4.67;;;3.70;;
35578;SDS011;21687;48.900;9.188;2022-11-15T00:37:33;5.40;;;3.47;;
35578;SDS011;21687;48.900;9.188;2022-11-15T00:39:59;3.60;;;3.30;;
35578;SDS011;21687;48.900;9.188;2022-11-15T00:42:25;5.40;;;3.70;;
35578;SDS011;21687;48.900;9.188;2022-11-15T00:44:51;5.60;;;3.63;;
35578;SDS011;21687;48.900;9.188;2022-11-15T00:47:18;4.10;;;3.50;;
35578;SDS011;21687;48.900;9.188;2022-11-15T00:49:44;6.00;;;3.27;;
35578;SDS011;21687;48.900;9.188;2022-11-15T00:52:10;5.37;;;3.83;;
35578;SDS011;21687;48.900;9.188;2022-11-15T00:54:36;4.63;;;3.77;;
35578;SDS011;21687;48.900;9.188;2022-11-15T00:57:03;6.20;;;3.50;;
35578;SDS011;21687;48.900;9.188;2022-11-15T00:59:29;5.03;;;3.83;;
35578;SDS011;21687;48.900;9.188;2022-11-15T01:01:56;4.20;;;3.40;;
35578;SDS011;21687;48.900;9.188;2022-11-15T01:04:22;3.43;;;3.10;;
35578;SDS011;21687;48.900;9.188;2022-11-15T01:06:48;3.80;;;3.07;;
35578;SDS011;21687;48.900;9.188;2022-11-15T01:09:14;6.13;;;3.57;;
35578;SDS011;21687;48.900;9.188;2022-11-15T01:11:41;3.60;;;3.17;;
35578;SDS011;21687;48.900;9.188;2022-11-15T01:14:07;4.93;;;3.50;;
35578;SDS011;21687;48.900;9.188;2022-11-15T01:16:33;5.23;;;3.40;;
35578;SDS011;21687;48.900;9.188;2022-11-15T01:19:00;4.10;;;3.17;;
35578;SDS011;21687;48.900;9.188;2022-11-15T01:21:26;4.33;;;3.50;;
35578;SDS011;21687;48.900;9.188;2022-11-15T01:23:53;4.03;;;3.40;;
35578;SDS011;21687;48.900;9.188;2022-11-15T01:26:20;5.47;;;3.40;;
35578;SDS011;21687;48.900;9.188;2022-11-15T01:28:47;4.13;;;3.37;;
35578;SDS011;21687;48.900;9.188;2022-11-15T01:31:15;3.63;;;3.13;;
35578;SDS011;21687;48.900;9.188;2022-11-15T01:33:45;6.57;;;3.40;;
35578;SDS011;21687;48.900;9.188;2022-11-15T01:36:16;5.00;;;3.63;;
35578;SDS011;21687;48.900;9.188;2022-11-15T01:38:44;5.17;;;3.80;;
35578;SDS011;21687;48.900;9.188;2022-11-15T01:41:15;4.80;;;3.80;;
35578;SDS011;21687;48.900;9.188;2022-11-15T01:43:43;3.23;;;2.93;;
35578;SDS011;21687;48.900;9.188;2022-11-15T01:48:49;5.80;;;3.37;;
35578;SDS011;21687;48.900;9.188;2022-11-15T01:51:19;5.80;;;3.50;;
35578;SDS011;21687;48.900;9.188;2022-11-15T01:53:49;4.00;;;3.27;;
35578;SDS011;21687;48.900;9.188;2022-11-15T01:56:20;3.93;;;3.10;;
35578;SDS011;21687;48.900;9.188;2022-11-15T01:58:50;3.50;;;3.10;;
35578;SDS011;21687;48.900;9.188;2022-11-15T02:01:18;3.83;;;3.23;;
35578;SDS011;21687;48.900;9.188;2022-11-15T02:06:20;4.07;;;3.03;;
35578;SDS011;21687;48.900;9.188;2022-11-15T02:08:47;4.87;;;2.93;;
35578;SDS011;21687;48.900;9.188;2022-11-15T02:11:14;3.30;;;2.60;;
35578;SDS011;21687;48.900;9.188;2022-11-15T02:13:41;4.20;;;2.93;;
35578;SDS011;21687;48.900;9.188;2022-11-15T02:16:27;2.67;;;2.47;;
35578;SDS011;21687;48.900;9.188;2022-11-15T02:24:16;4.17;;;2.97;;
35578;SDS011;21687;48.900;9.188;2022-11-15T02:32:28;3.17;;;2.77;;
35578;SDS011;21687;48.900;9.188;2022-11-15T02:38:04;4.93;;;2.50;;
35578;SDS011;21687;48.900;9.188;2022-11-15T02:44:11;3.00;;;2.13;;
35578;SDS011;21687;48.900;9.188;2022-11-15T02:49:36;3.30;;;2.47;;
35578;SDS011;21687;48.900;9.188;2022-11-15T02:52:04;3.63;;;2.20;;
35578;SDS011;21687;48.900;9.188;2022-11-15T02:54:31;3.27;;;2.43;;
35578;SDS011;21687;48.900;9.188;2022-11-15T02:57:18;4.30;;;2.53;;
35578;SDS011;21687;48.900;9.188;2022-11-15T03:00:04;4.87;;;2.70;;
35578;SDS011;21687;48.900;9.188;2022-11-15T03:16:20;3.93;;;2.90;;
35578;SDS011;21687;48.900;9.188;2022-11-15T03:19:02;5.53;;;2.50;;
35578;SDS011;21687;48.900;9.188;2022-11-15T03:21:42;4.60;;;3.17;;
35578;SDS011;21687;48.900;9.188;2022-11-15T03:24:10;3.37;;;2.73;;
35578;SDS011;21687;48.900;9.188;2022-11-15T03:26:39;3.63;;;2.60;;
35578;SDS011;21687;48.900;9.188;2022-11-15T03:29:11;3.27;;;2.83;;
35578;SDS011;21687;48.900;9.188;2022-11-15T03:31:43;4.07;;;2.53;;
35578;SDS011;21687;48.900;9.188;2022-11-15T03:34:22;4.30;;;3.00;;
35578;SDS011;21687;48.900;9.188;2022-11-15T03:36:54;4.33;;;2.80;;
35578;SDS011;21687;48.900;9.188;2022-11-15T03:39:21;3.63;;;3.23;;
35578;SDS011;21687;48.900;9.188;2022-11-15T03:46:47;4.03;;;3.20;;
35578;SDS011;21687;48.900;9.188;2022-11-15T03:49:37;5.97;;;3.60;;
35578;SDS011;21687;48.900;9.188;2022-11-15T03:52:07;5.53;;;4.20;;
35578;SDS011;21687;48.900;9.188;2022-11-15T03:54:36;4.87;;;4.10;;
35578;SDS011;21687;48.900;9.188;2022-11-15T03:57:12;5.43;;;4.13;;
35578;SDS011;21687;48.900;9.188;2022-11-15T03:59:38;5.20;;;4.20;;
35578;SDS011;21687;48.900;9.188;2022-11-15T04:02:04;7.23;;;4.37;;
35578;SDS011;21687;48.900;9.188;2022-11-15T04:04:30;6.43;;;4.03;;
35578;SDS011;21687;48.900;9.188;2022-11-15T04:06:57;6.60;;;4.57;;
35578;SDS011;21687;48.900;9.188;2022-11-15T04:09:23;6.83;;;4.17;;
35578;SDS011;21687;48.900;9.188;2022-11-15T04:11:49;6.53;;;4.40;;
35578;SDS011;21687;48.900;9.188;2022-11-15T04:14:15;9.33;;;5.93;;
35578;SDS011;21687;48.900;9.188;2022-11-15T04:16:41;5.53;;;4.13;;
35578;SDS011;21687;48.900;9.188;2022-11-15T04:19:08;6.10;;;4.17;;
35578;SDS011;21687;48.900;9.188;2022-11-15T04:21:53;8.00;;;4.70;;
35578;SDS011;21687;48.900;9.188;2022-11-15T04:24:38;7.77;;;4.13;;
35578;SDS011;21687;48.900;9.188;2022-11-15T04:27:04;6.27;;;4.50;;
35578;SDS011;21687;48.900;9.188;2022-11-15T04:29:31;8.30;;;5.33;;
35578;SDS011;21687;48.900;9.188;2022-11-15T04:32:04;7.17;;;5.40;;
35578;SDS011;21687;48.900;9.188;2022-11-15T04:34:31;6.23;;;4.80;;
35578;SDS011;21687;48.900;9.188;2022-11-15T04:36:58;6.87;;;4.80;;
35578;SDS011;21687;48.900;9.188;2022-11-15T04:39:37;6.33;;;4.80;;
35578;SDS011;21687;48.900;9.188;2022-11-15T04:42:06;6.93;;;5.07;;
35578;SDS011;21687;48.900;9.188;2022-11-15T04:44:32;5.10;;;4.40;;
35578;SDS011;21687;48.900;9.188;2022-11-15T04:46:59;6.70;;;4.80;;
35578;SDS011;21687;48.900;9.188;2022-11-15T04:49:25;7.97;;;4.70;;
35578;SDS011;21687;48.900;9.188;2022-11-15T04:51:52;6.13;;;4.40;;
35578;SDS011;21687;48.900;9.188;2022-11-15T04:54:18;7.30;;;5.37;;
35578;SDS011;21687;48.900;9.188;2022-11-15T04:56:44;7.47;;;5.37;;
35578;SDS011;21687;48.900;9.188;2022-11-15T04:59:11;7.77;;;5.07;;
35578;SDS011;21687;48.900;9.188;2022-11-15T05:01:37;7.17;;;4.80;;
35578;SDS011;21687;48.900;9.188;2022-11-15T05:04:03;7.20;;;4.60;;
35578;SDS011;21687;48.900;9.188;2022-11-15T05:06:46;6.20;;;4.70;;
35578;SDS011;21687;48.900;9.188;2022-11-15T05:09:13;7.03;;;4.90;;
35578;SDS011;21687;48.900;9.188;2022-11-15T05:11:39;7.93;;;4.60;;
35578;SDS011;21687;48.900;9.188;2022-11-15T05:14:06;5.63;;;4.47;;
35578;SDS011;21687;48.900;9.188;2022-11-15T05:16:32;7.00;;;4.53;;
35578;SDS011;21687;48.900;9.188;2022-11-15T05:18:58;6.13;;;4.13;;
35578;SDS011;21687;48.900;9.188;2022-11-15T05:21:25;5.43;;;4.23;;
35578;SDS011;21687;48.900;9.188;2022-11-15T05:23:51;6.80;;;4.90;;
35578;SDS011;21687;48.900;9.188;2022-11-15T05:26:17;6.03;;;4.43;;
35578;SDS011;21687;48.900;9.188;2022-11-15T05:28:44;6.93;;;4.60;;
35578;SDS011;21687;48.900;9.188;2022-11-15T05:31:11;9.07;;;4.90;;
35578;SDS011;21687;48.900;9.188;2022-11-15T05:33:39;6.70;;;4.50;;
35578;SDS011;21687;48.900;9.188;2022-11-15T05:39:10;5.63;;;4.03;;
35578;SDS011;21687;48.900;9.188;2022-11-15T05:41:37;5.50;;;3.97;;
35578;SDS011;21687;48.900;9.188;2022-11-15T05:44:09;5.90;;;4.40;;
35578;SDS011;21687;48.900;9.188;2022-11-15T05:46:37;5.23;;;3.90;;
35578;SDS011;21687;48.900;9.188;2022-11-15T05:49:05;6.17;;;3.90;;
35578;SDS011;21687;48.900;9.188;2022-11-15T05:51:36;4.90;;;3.90;;
35578;SDS011;21687;48.900;9.188;2022-11-15T05:54:03;8.07;;;4.30;;
35578;SDS011;21687;48.900;9.188;2022-11-15T05:56:29;5.80;;;3.97;;
35578;SDS011;21687;48.900;9.188;2022-11-15T05:58:56;7.60;;;4.50;;
35578;SDS011;21687;48.900;9.188;2022-11-15T06:01:24;9.80;;;4.70;;
35578;SDS011;21687;48.900;9.188;2022-11-15T06:03:51;9.70;;;5.00;;
35578;SDS011;21687;48.900;9.188;2022-11-15T06:06:17;5.87;;;4.00;;
35578;SDS011;21687;48.900;9.188;2022-11-15T06:08:44;6.73;;;4.93;;
35578;SDS011;21687;48.900;9.188;2022-11-15T06:11:10;6.40;;;4.43;;
35578;SDS011;21687;48.900;9.188;2022-11-15T06:13:36;6.73;;;5.10;;
35578;SDS011;21687;48.900;9.188;2022-11-15T06:16:02;7.57;;;4.90;;
35578;SDS011;21687;48.900;9.188;2022-11-15T06:18:31;6.73;;;5.03;;
35578;SDS011;21687;48.900;9.188;2022-11-15T06:21:01;7.57;;;5.23;;
35578;SDS011;21687;48.900;9.188;2022-11-15T06:23:28;8.37;;;4.70;;
35578;SDS011;21687;48.900;9.188;2022-11-15T06:25:58;8.33;;;5.30;;
35578;SDS011;21687;48.900;9.188;2022-11-15T06:28:27;14.50;;;5.67;;
35578;SDS011;21687;48.900;9.188;2022-11-15T06:30:55;7.97;;;4.73;;
35578;SDS011;21687;48.900;9.188;2022-11-15T06:33:26;6.13;;;4.70;;
35578;SDS011;21687;48.900;9.188;2022-11-15T06:35:53;7.67;;;4.50;;
35578;SDS011;21687;48.900;9.188;2022-11-15T06:38:19;6.10;;;4.53;;
35578;SDS011;21687;48.900;9.188;2022-11-15T06:40:45;5.00;;;4.27;;
35578;SDS011;21687;48.900;9.188;2022-11-15T06:43:11;6.07;;;4.37;;
35578;SDS011;21687;48.900;9.188;2022-11-15T06:45:39;6.53;;;4.90;;
35578;SDS011;21687;48.900;9.188;2022-11-15T06:48:06;5.87;;;4.40;;
35578;SDS011;21687;48.900;9.188;2022-11-15T06:50:32;6.20;;;4.43;;
35578;SDS011;21687;48.900;9.188;2022-11-15T06:53:02;6.20;;;4.57;;
35578;SDS011;21687;48.900;9.188;2022-11-15T06:55:29;7.03;;;4.47;;
35578;SDS011;21687;48.900;9.188;2022-11-15T06:57:55;6.60;;;4.90;;
35578;SDS011;21687;48.900;9.188;2022-11-15T07:00:22;9.63;;;4.27;;
35578;SDS011;21687;48.900;9.188;2022-11-15T07:02:48;6.50;;;5.27;;
35578;SDS011;21687;48.900;9.188;2022-11-15T07:05:15;6.17;;;4.17;;
35578;SDS011;21687;48.900;9.188;2022-11-15T07:07:41;7.60;;;4.70;;
35578;SDS011;21687;48.900;9.188;2022-11-15T07:10:08;7.07;;;3.90;;
35578;SDS011;21687;48.900;9.188;2022-11-15T07:12:34;6.33;;;4.27;;
35578;SDS011;21687;48.900;9.188;2022-11-15T07:15:01;7.97;;;4.63;;
35578;SDS011;21687;48.900;9.188;2022-11-15T07:17:27;6.57;;;4.30;;
35578;SDS011;21687;48.900;9.188;2022-11-15T07:19:53;5.50;;;4.37;;
35578;SDS011;21687;48.900;9.188;2022-11-15T07:22:20;4.60;;;3.90;;
35578;SDS011;21687;48.900;9.188;2022-11-15T07:24:46;7.40;;;5.00;;
35578;SDS011;21687;48.900;9.188;2022-11-15T07:27:12;6.03;;;4.53;;
35578;SDS011;21687;48.900;9.188;2022-11-15T07:29:38;7.57;;;5.70;;
35578;SDS011;21687;48.900;9.188;2022-11-15T07:32:04;8.07;;;5.60;;
35578;SDS011;21687;48.900;9.188;2022-11-15T07:34:31;8.10;;;4.57;;
35578;SDS011;21687;48.900;9.188;2022-11-15T07:36:57;10.33;;;5.00;;
35578;SDS011;21687;48.900;9.188;2022-11-15T07:39:23;6.17;;;4.60;;
35578;SDS011;21687;48.900;9.188;2022-11-15T07:41:49;7.17;;;4.93;;
35578;SDS011;21687;48.900;9.188;2022-11-15T07:44:35;7.77;;;4.10;;
35578;SDS011;21687;48.900;9.188;2022-11-15T07:47:02;7.43;;;4.57;;
35578;SDS011;21687;48.900;9.188;2022-11-15T07:49:28;7.60;;;4.20;;
35578;SDS011;21687;48.900;9.188;2022-11-15T07:51:54;8.47;;;5.30;;
35578;SDS011;21687;48.900;9.188;2022-11-15T07:54:21;7.57;;;5.07;;
35578;SDS011;21687;48.900;9.188;2022-11-15T07:56:47;8.67;;;5.00;;
35578;SDS011;21687;48.900;9.188;2022-11-15T07:59:13;10.70;;;5.17;;
35578;SDS011;21687;48.900;9.188;2022-11-15T08:01:39;5.63;;;3.37;;
35578;SDS011;21687;48.900;9.188;2022-11-15T08:04:05;6.90;;;3.53;;
35578;SDS011;21687;48.900;9.188;2022-11-15T08:06:32;8.60;;;4.00;;
35578;SDS011;21687;48.900;9.188;2022-11-15T08:08:58;5.97;;;3.70;;
35578;SDS011;21687;48.900;9.188;2022-11-15T08:11:24;5.00;;;3.40;;
35578;SDS011;21687;48.900;9.188;2022-11-15T08:13:50;4.13;;;3.30;;
35578;SDS011;21687;48.900;9.188;2022-11-15T08:16:16;7.10;;;4.23;;
35578;SDS011;21687;48.900;9.188;2022-11-15T08:18:43;4.10;;;3.47;;
35578;SDS011;21687;48.900;9.188;2022-11-15T08:21:09;8.67;;;3.80;;
35578;SDS011;21687;48.900;9.188;2022-11-15T08:23:38;5.73;;;4.03;;
35578;SDS011;21687;48.900;9.188;2022-11-15T08:26:04;7.57;;;3.60;;
35578;SDS011;21687;48.900;9.188;2022-11-15T08:28:30;5.07;;;3.63;;
35578;SDS011;21687;48.900;9.188;2022-11-15T08:30:57;7.40;;;3.73;;
35578;SDS011;21687;48.900;9.188;2022-11-15T08:33:23;8.83;;;3.90;;
35578;SDS011;21687;48.900;9.188;2022-11-15T08:35:50;7.13;;;4.23;;
35578;SDS011;21687;48.900;9.188;2022-11-15T08:38:16;6.17;;;4.17;;
35578;SDS011;21687;48.900;9.188;2022-11-15T08:40:42;5.17;;;3.83;;
35578;SDS011;21687;48.900;9.188;2022-11-15T08:43:08;7.07;;;4.07;;
35578;SDS011;21687;48.900;9.188;2022-11-15T08:45:35;4.67;;;3.70;;
35578;SDS011;21687;48.900;9.188;2022-11-15T08:48:01;9.53;;;4.70;;
35578;SDS011;21687;48.900;9.188;2022-11-15T08:50:28;7.67;;;4.07;;
35578;SDS011;21687;48.900;9.188;2022-11-15T08:52:55;8.27;;;4.37;;
35578;SDS011;21687;48.900;9.188;2022-11-15T08:55:21;7.80;;;3.60;;
35578;SDS011;21687;48.900;9.188;2022-11-15T08:57:47;5.83;;;3.77;;
35578;SDS011;21687;48.900;9.188;2022-11-15T09:00:14;6.10;;;3.87;;
35578;SDS011;21687;48.900;9.188;2022-11-15T09:02:40;6.03;;;4.23;;
35578;SDS011;21687;48.900;9.188;2022-11-15T09:05:07;5.30;;;4.17;;
35578;SDS011;21687;48.900;9.188;2022-11-15T09:07:33;5.07;;;4.10;;
35578;SDS011;21687;48.900;9.188;2022-11-15T09:10:00;5.47;;;3.80;;
35578;SDS011;21687;48.900;9.188;2022-11-15T09:12:26;5.13;;;3.60;;
35578;SDS011;21687;48.900;9.188;2022-11-15T09:14:53;5.97;;;4.13;;
35578;SDS011;21687;48.900;9.188;2022-11-15T09:17:19;5.70;;;3.53;;
35578;SDS011;21687;48.900;9.188;2022-11-15T09:19:45;6.10;;;3.30;;
35578;SDS011;21687;48.900;9.188;2022-11-15T09:22:12;6.87;;;3.50;;
35578;SDS011;21687;48.900;9.188;2022-11-15T09:24:38;6.17;;;3.60;;
35578;SDS011;21687;48.900;9.188;2022-11-15T09:27:04;7.77;;;3.50;;
35578;SDS011;21687;48.900;9.188;2022-11-15T09:29:30;6.23;;;4.07;;
35578;SDS011;21687;48.900;9.188;2022-11-15T09:31:57;4.90;;;3.33;;
35578;SDS011;21687;48.900;9.188;2022-11-15T09:34:23;4.37;;;3.20;;
35578;SDS011;21687;48.900;9.188;2022-11-15T09:36:49;6.90;;;3.23;;
35578;SDS011;21687;48.900;9.188;2022-11-15T09:39:15;7.83;;;3.63;;
35578;SDS011;21687;48.900;9.188;2022-11-15T09:41:58;5.53;;;3.20;;
35578;SDS011;21687;48.900;9.188;2022-11-15T09:50:00;4.97;;;3.20;;
35578;SDS011;21687;48.900;9.188;2022-11-15T09:52:34;3.83;;;3.00;;
35578;SDS011;21687;48.900;9.188;2022-11-15T09:55:02;7.37;;;3.20;;
35578;SDS011;21687;48.900;9.188;2022-11-15T09:57:41;4.10;;;3.50;;
35578;SDS011;21687;48.900;9.188;2022-11-15T10:00:21;4.17;;;2.93;;
35578;SDS011;21687;48.900;9.188;2022-11-15T10:03:14;4.33;;;3.30;;
35578;SDS011;21687;48.900;9.188;2022-11-15T10:05:50;6.63;;;2.87;;
35578;SDS011;21687;48.900;9.188;2022-11-15T10:13:34;5.03;;;2.70;;
35578;SDS011;21687;48.900;9.188;2022-11-15T10:16:12;5.07;;;2.90;;
35578;SDS011;21687;48.900;9.188;2022-11-15T10:21:19;3.57;;;2.70;;
35578;SDS011;21687;48.900;9.188;2022-11-15T10:23:48;5.90;;;2.93;;
35578;SDS011;21687;48.900;9.188;2022-11-15T10:26:16;3.97;;;2.70;;
35578;SDS011;21687;48.900;9.188;2022-11-15T10:28:43;3.53;;;2.50;;
35578;SDS011;21687;48.900;9.188;2022-11-15T10:31:23;3.43;;;2.57;;
35578;SDS011;21687;48.900;9.188;2022-11-15T10:33:51;5.20;;;2.97;;
35578;SDS011;21687;48.900;9.188;2022-11-15T10:36:36;2.50;;;2.30;;
35578;SDS011;21687;48.900;9.188;2022-11-15T10:39:02;2.93;;;2.33;;
35578;SDS011;21687;48.900;9.188;2022-11-15T10:41:30;3.40;;;2.50;;
35578;SDS011;21687;48.900;9.188;2022-11-15T10:44:07;5.03;;;3.20;;
35578;SDS011;21687;48.900;9.188;2022-11-15T10:46:38;4.60;;;2.80;;
35578;SDS011;21687;48.900;9.188;2022-11-15T10:51:51;3.77;;;2.30;;
35578;SDS011;21687;48.900;9.188;2022-11-15T10:54:25;3.83;;;2.53;;
35578;SDS011;21687;48.900;9.188;2022-11-15T10:56:54;4.10;;;2.73;;
35578;SDS011;21687;48.900;9.188;2022-11-15T10:59:24;2.70;;;2.50;;
35578;SDS011;21687;48.900;9.188;2022-11-15T11:01:54;3.33;;;2.87;;
35578;SDS011;21687;48.900;9.188;2022-11-15T11:04:21;3.33;;;2.70;;
35578;SDS011;21687;48.900;9.188;2022-11-15T11:06:57;3.87;;;2.93;;
35578;SDS011;21687;48.900;9.188;2022-11-15T11:09:37;4.57;;;2.93;;
35578;SDS011;21687;48.900;9.188;2022-11-15T11:12:10;3.43;;;3.13;;
35578;SDS011;21687;48.900;9.188;2022-11-15T11:14:38;5.80;;;3.20;;
35578;SDS011;21687;48.900;9.188;2022-11-15T11:19:48;4.47;;;2.90;;
35578;SDS011;21687;48.900;9.188;2022-11-15T11:41:36;4.47;;;3.20;;
35578;SDS011;21687;48.900;9.188;2022-11-15T11:49:38;6.43;;;3.40;;
35578;SDS011;21687;48.900;9.188;2022-11-15T11:52:22;4.67;;;3.10;;
35578;SDS011;21687;48.900;9.188;2022-11-15T12:03:48;4.30;;;2.97;;
35578;SDS011;21687;48.900;9.188;2022-11-15T12:09:16;4.83;;;3.60;;
35578;SDS011;21687;48.900;9.188;2022-11-15T12:12:07;4.03;;;2.60;;
35578;SDS011;21687;48.900;9.188;2022-11-15T12:14:48;5.50;;;3.03;;
35578;SDS011;21687;48.900;9.188;2022-11-15T12:17:17;3.30;;;2.90;;
35578;SDS011;21687;48.900;9.188;2022-11-15T12:19:46;5.17;;;2.93;;
35578;SDS011;21687;48.900;9.188;2022-11-15T12:22:20;4.50;;;2.53;;
35578;SDS011;21687;48.900;9.188;2022-11-15T12:25:21;4.83;;;3.10;;
35578;SDS011;21687;48.900;9.188;2022-11-15T12:27:56;2.73;;;2.53;;
35578;SDS011;21687;48.900;9.188;2022-11-15T12:30:51;4.13;;;2.47;;
35578;SDS011;21687;48.900;9.188;2022-11-15T12:33:40;3.93;;;2.70;;
35578;SDS011;21687;48.900;9.188;2022-11-15T12:38:52;3.53;;;2.80;;
35578;SDS011;21687;48.900;9.188;2022-11-15T12:41:25;4.47;;;2.83;;
35578;SDS011;21687;48.900;9.188;2022-11-15T12:43:59;6.80;;;2.73;;
35578;SDS011;21687;48.900;9.188;2022-11-15T12:49:02;3.93;;;2.80;;
35578;SDS011;21687;48.900;9.188;2022-11-15T13:02:33;5.57;;;2.87;;
35578;SDS011;21687;48.900;9.188;2022-11-15T13:12:59;6.13;;;2.30;;
35578;SDS011;21687;48.900;9.188;2022-11-15T13:15:36;2.60;;;2.37;;
35578;SDS011;21687;48.900;9.188;2022-11-15T13:20:55;4.30;;;2.73;;
35578;SDS011;21687;48.900;9.188;2022-11-15T13:23:21;3.47;;;2.83;;
35578;SDS011;21687;48.900;9.188;2022-11-15T13:25:53;4.00;;;2.87;;
35578;SDS011;21687;48.900;9.188;2022-11-15T13:28:31;7.20;;;2.63;;
35578;SDS011;21687;48.900;9.188;2022-11-15T13:31:03;5.33;;;2.63;;
35578;SDS011;21687;48.900;9.188;2022-11-15T13:33:44;4.53;;;2.57;;
35578;SDS011;21687;48.900;9.188;2022-11-15T13:36:21;5.07;;;2.80;;
35578;SDS011;21687;48.900;9.188;2022-11-15T13:39:03;3.60;;;2.63;;
35578;SDS011;21687;48.900;9.188;2022-11-15T13:41:32;3.73;;;2.63;;
35578;SDS011;21687;48.900;9.188;2022-11-15T13:44:00;3.73;;;2.50;;
35578;SDS011;21687;48.900;9.188;2022-11-15T13:46:28;3.73;;;2.67;;
35578;SDS011;21687;48.900;9.188;2022-11-15T13:48:59;5.87;;;2.70;;
35578;SDS011;21687;48.900;9.188;2022-11-15T13:54:17;6.77;;;3.03;;
35578;SDS011;21687;48.900;9.188;2022-11-15T13:56:50;7.40;;;3.10;;
35578;SDS011;21687;48.900;9.188;2022-11-15T14:01:54;3.83;;;2.50;;
35578;SDS011;21687;48.900;9.188;2022-11-15T14:04:23;3.13;;;2.47;;
35578;SDS011;21687;48.900;9.188;2022-11-15T14:06:57;3.40;;;2.40;;
35578;SDS011;21687;48.900;9.188;2022-11-15T14:12:00;3.67;;;2.37;;
35578;SDS011;21687;48.900;9.188;2022-11-15T14:14:28;2.30;;;2.10;;
35578;SDS011;21687;48.900;9.188;2022-11-15T14:16:56;2.93;;;2.40;;
35578;SDS011;21687;48.900;9.188;2022-11-15T14:22:09;5.23;;;3.33;;
35578;SDS011;21687;48.900;9.188;2022-11-15T14:24:38;5.00;;;2.80;;
35578;SDS011;21687;48.900;9.188;2022-11-15T14:29:46;5.00;;;2.70;;
35578;SDS011;21687;48.900;9.188;2022-11-15T14:32:20;4.93;;;2.53;;
35578;SDS011;21687;48.900;9.188;2022-11-15T14:34:49;4.20;;;3.80;;
35578;SDS011;21687;48.900;9.188;2022-11-15T14:39:51;3.70;;;3.13;;
35578;SDS011;21687;48.900;9.188;2022-11-15T14:42:18;3.70;;;2.80;;
35578;SDS011;21687;48.900;9.188;2022-11-15T14:44:45;4.73;;;3.47;;
35578;SDS011;21687;48.900;9.188;2022-11-15T14:47:12;3.20;;;2.73;;
35578;SDS011;21687;48.900;9.188;2022-11-15T14:49:38;3.60;;;2.53;;
35578;SDS011;21687;48.900;9.188;2022-11-15T14:52:16;4.80;;;2.50;;
35578;SDS011;21687;48.900;9.188;2022-11-15T14:54:48;6.10;;;3.03;;
35578;SDS011;21687;48.900;9.188;2022-11-15T14:57:14;3.50;;;3.10;;
35578;SDS011;21687;48.900;9.188;2022-11-15T14:59:40;3.20;;;2.77;;
35578;SDS011;21687;48.900;9.188;2022-11-15T15:02:27;3.77;;;2.60;;
35578;SDS011;21687;48.900;9.188;2022-11-15T15:04:53;6.83;;;3.43;;
35578;SDS011;21687;48.900;9.188;2022-11-15T15:07:19;5.43;;;3.13;;
35578;SDS011;21687;48.900;9.188;2022-11-15T15:09:47;3.57;;;2.70;;
35578;SDS011;21687;48.900;9.188;2022-11-15T15:14:44;5.10;;;3.03;;
35578;SDS011;21687;48.900;9.188;2022-11-15T15:17:11;4.47;;;2.60;;
35578;SDS011;21687;48.900;9.188;2022-11-15T15:19:37;5.37;;;4.17;;
35578;SDS011;21687;48.900;9.188;2022-11-15T15:22:04;6.10;;;4.43;;
35578;SDS011;21687;48.900;9.188;2022-11-15T15:24:31;29.93;;;13.17;;
35578;SDS011;21687;48.900;9.188;2022-11-15T15:26:57;9.77;;;4.90;;
35578;SDS011;21687;48.900;9.188;2022-11-15T15:29:23;15.93;;;9.03;;
35578;SDS011;21687;48.900;9.188;2022-11-15T15:31:49;6.77;;;4.40;;
35578;SDS011;21687;48.900;9.188;2022-11-15T15:34:16;8.70;;;3.47;;
35578;SDS011;21687;48.900;9.188;2022-11-15T15:36:42;12.77;;;7.20;;
35578;SDS011;21687;48.900;9.188;2022-11-15T15:39:09;20.50;;;10.07;;
35578;SDS011;21687;48.900;9.188;2022-11-15T15:41:37;47.63;;;22.73;;
35578;SDS011;21687;48.900;9.188;2022-11-15T15:44:03;12.10;;;6.70;;
35578;SDS011;21687;48.900;9.188;2022-11-15T15:46:30;24.97;;;12.57;;
35578;SDS011;21687;48.900;9.188;2022-11-15T15:48:56;19.53;;;10.70;;
35578;SDS011;21687;48.900;9.188;2022-11-15T15:51:22;13.43;;;7.63;;
35578;SDS011;21687;48.900;9.188;2022-11-15T15:53:48;22.00;;;11.93;;
35578;SDS011;21687;48.900;9.188;2022-11-15T15:56:16;21.23;;;9.93;;
35578;SDS011;21687;48.900;9.188;2022-11-15T15:58:43;19.40;;;9.80;;
35578;SDS011;21687;48.900;9.188;2022-11-15T16:01:09;15.47;;;8.10;;
35578;SDS011;21687;48.900;9.188;2022-11-15T16:03:35;23.37;;;11.30;;
35578;SDS011;21687;48.900;9.188;2022-11-15T16:06:01;13.97;;;7.83;;
35578;SDS011;21687;48.900;9.188;2022-11-15T16:08:29;11.33;;;5.73;;
35578;SDS011;21687;48.900;9.188;2022-11-15T16:10:55;8.40;;;6.10;;
35578;SDS011;21687;48.900;9.188;2022-11-15T16:13:21;10.37;;;6.03;;
35578;SDS011;21687;48.900;9.188;2022-11-15T16:15:49;6.80;;;5.00;;
35578;SDS011;21687;48.900;9.188;2022-11-15T16:18:18;7.73;;;5.27;;
35578;SDS011;21687;48.900;9.188;2022-11-15T16:20:45;8.93;;;5.43;;
35578;SDS011;21687;48.900;9.188;2022-11-15T16:23:15;9.53;;;5.87;;
35578;SDS011;21687;48.900;9.188;2022-11-15T16:28:20;8.43;;;5.60;;
35578;SDS011;21687;48.900;9.188;2022-11-15T16:31:02;9.63;;;5.37;;
35578;SDS011;21687;48.900;9.188;2022-11-15T16:33:35;10.97;;;5.53;;
35578;SDS011;21687;48.900;9.188;2022-11-15T16:36:02;7.07;;;5.27;;
35578;SDS011;21687;48.900;9.188;2022-11-15T16:38:29;8.40;;;5.77;;
35578;SDS011;21687;48.900;9.188;2022-11-15T16:40:56;8.40;;;5.47;;
35578;SDS011;21687;48.900;9.188;2022-11-15T16:43:22;7.97;;;5.13;;
35578;SDS011;21687;48.900;9.188;2022-11-15T16:45:49;6.83;;;5.17;;
35578;SDS011;21687;48.900;9.188;2022-11-15T16:50:47;7.17;;;5.23;;
35578;SDS011;21687;48.900;9.188;2022-11-15T16:53:13;10.20;;;6.63;;
35578;SDS011;21687;48.900;9.188;2022-11-15T16:55:39;9.37;;;5.73;;
35578;SDS011;21687;48.900;9.188;2022-11-15T16:58:07;13.33;;;6.90;;
35578;SDS011;21687;48.900;9.188;2022-11-15T17:00:34;11.80;;;6.67;;
35578;SDS011;21687;48.900;9.188;2022-11-15T17:03:01;7.50;;;5.43;;
35578;SDS011;21687;48.900;9.188;2022-11-15T17:05:28;9.27;;;5.20;;
35578;SDS011;21687;48.900;9.188;2022-11-15T17:07:54;8.73;;;5.27;;
35578;SDS011;21687;48.900;9.188;2022-11-15T17:10:21;10.97;;;5.70;;
35578;SDS011;21687;48.900;9.188;2022-11-15T17:12:50;11.43;;;6.60;;
35578;SDS011;21687;48.900;9.188;2022-11-15T17:15:19;9.57;;;5.73;;
35578;SDS011;21687;48.900;9.188;2022-11-15T17:17:53;9.87;;;6.37;;
35578;SDS011;21687;48.900;9.188;2022-11-15T17:20:20;11.13;;;6.43;;
35578;SDS011;21687;48.900;9.188;2022-11-15T17:22:48;9.60;;;4.90;;
35578;SDS011;21687;48.900;9.188;2022-11-15T17:25:15;9.17;;;5.03;;
35578;SDS011;21687;48.900;9.188;2022-11-15T17:27:41;8.13;;;4.57;;
35578;SDS011;21687;48.900;9.188;2022-11-15T17:30:08;10.23;;;4.90;;